sensor_id;sensor_type;location;lat;lon;timestamp;pressure;altitude;pressure_sealevel;temperature;humidity
76753;BME280;65687;51.308;16.916;2023-11-19T00:02:39;100148.44;;;1.78;99.39
76753;BME280;65687;51.308;16.916;2023-11-19T00:07:41;100130.73;;;1.78;99.47
76753;BME280;65687;51.308;16.916;2023-11-19T00:12:44;100119.66;;;1.76;99.57
76753;BME280;65687;51.308;16.916;2023-11-19T00:17:47;100106.39;;;1.76;99.69
76753;BME280;65687;51.308;16.916;2023-11-19T00:22:49;100107.91;;;1.76;99.61
76753;BME280;65687;51.308;16.916;2023-11-19T00:27:53;100093.25;;;1.76;99.69
76753;BME280;65687;51.308;16.916;2023-11-19T00:32:57;100076.48;;;1.77;99.60
76753;BME280;65687;51.308;16.916;2023-11-19T00:37:59;100065.46;;;1.78;99.66
76753;BME280;65687;51.308;16.916;2023-11-19T00:43:01;100059.40;;;1.76;99.52
76753;BME280;65687;51.308;16.916;2023-11-19T00:48:03;100042.39;;;1.74;99.42
76753;BME280;65687;51.308;16.916;2023-11-19T00:53:05;100029.66;;;1.73;99.32
76753;BME280;65687;51.308;16.916;2023-11-19T00:58:06;100031.05;;;1.71;99.50
76753;BME280;65687;51.308;16.916;2023-11-19T01:03:08;100020.09;;;1.68;99.39
76753;BME280;65687;51.308;16.916;2023-11-19T01:08:10;100001.66;;;1.63;99.27
76753;BME280;65687;51.308;16.916;2023-11-19T01:13:12;99982.80;;;1.56;99.39
76753;BME280;65687;51.308;16.916;2023-11-19T01:18:13;99965.23;;;1.49;99.48
76753;BME280;65687;51.308;16.916;2023-11-19T01:23:15;99944.21;;;1.44;99.82
76753;BME280;65687;51.308;16.916;2023-11-19T01:28:16;99926.02;;;1.40;99.69
76753;BME280;65687;51.308;16.916;2023-11-19T01:33:18;99915.84;;;1.34;99.60
76753;BME280;65687;51.308;16.916;2023-11-19T01:38:20;99918.09;;;1.29;99.59
76753;BME280;65687;51.308;16.916;2023-11-19T01:43:35;99911.70;;;1.32;99.71
76753;BME280;65687;51.308;16.916;2023-11-19T01:48:40;99919.39;;;1.35;99.67
76753;BME280;65687;51.308;16.916;2023-11-19T01:53:44;99926.88;;;1.38;99.20
76753;BME280;65687;51.308;16.916;2023-11-19T01:58:48;99911.32;;;1.42;99.36
76753;BME280;65687;51.308;16.916;2023-11-19T02:03:51;99899.49;;;1.44;98.97
76753;BME280;65687;51.308;16.916;2023-11-19T02:08:53;99888.02;;;1.44;98.59
76753;BME280;65687;51.308;16.916;2023-11-19T02:13:57;99895.47;;;1.40;98.46
76753;BME280;65687;51.308;16.916;2023-11-19T02:18:59;99875.61;;;1.39;98.21
76753;BME280;65687;51.308;16.916;2023-11-19T02:24:04;99864.88;;;1.41;98.17
76753;BME280;65687;51.308;16.916;2023-11-19T02:29:08;99861.54;;;1.40;97.90
76753;BME280;65687;51.308;16.916;2023-11-19T02:34:12;99842.95;;;1.39;97.66
76753;BME280;65687;51.308;16.916;2023-11-19T02:39:14;99834.02;;;1.40;97.61
76753;BME280;65687;51.308;16.916;2023-11-19T02:44:16;99835.25;;;1.39;97.18
76753;BME280;65687;51.308;16.916;2023-11-19T02:49:18;99819.90;;;1.33;97.00
76753;BME280;65687;51.308;16.916;2023-11-19T02:54:19;99822.95;;;1.28;96.78
76753;BME280;65687;51.308;16.916;2023-11-19T02:59:22;99812.23;;;1.25;96.96
76753;BME280;65687;51.308;16.916;2023-11-19T03:04:28;99798.20;;;1.26;96.76
76753;BME280;65687;51.308;16.916;2023-11-19T03:09:30;99777.27;;;1.23;96.89
76753;BME280;65687;51.308;16.916;2023-11-19T03:14:33;99771.73;;;1.21;96.68
76753;BME280;65687;51.308;16.916;2023-11-19T03:19:35;99754.34;;;1.19;96.92
76753;BME280;65687;51.308;16.916;2023-11-19T03:24:37;99739.84;;;1.10;97.11
76753;BME280;65687;51.308;16.916;2023-11-19T03:29:39;99732.26;;;1.07;97.06
76753;BME280;65687;51.308;16.916;2023-11-19T03:34:40;99730.53;;;1.08;96.80
76753;BME280;65687;51.308;16.916;2023-11-19T03:39:42;99725.02;;;1.06;96.94
76753;BME280;65687;51.308;16.916;2023-11-19T03:44:43;99703.89;;;1.01;97.27
76753;BME280;65687;51.308;16.916;2023-11-19T03:49:49;99695.80;;;0.98;96.98
76753;BME280;65687;51.308;16.916;2023-11-19T03:54:51;99688.08;;;0.95;97.29
76753;BME280;65687;51.308;16.916;2023-11-19T03:59:52;99677.77;;;0.91;97.13
76753;BME280;65687;51.308;16.916;2023-11-19T04:04:54;99662.15;;;0.90;97.46
76753;BME280;65687;51.308;16.916;2023-11-19T04:09:57;99668.42;;;0.88;97.39
76753;BME280;65687;51.308;16.916;2023-11-19T04:14:58;99633.33;;;0.88;97.39
76753;BME280;65687;51.308;16.916;2023-11-19T04:20:00;99619.44;;;0.87;97.44
76753;BME280;65687;51.308;16.916;2023-11-19T04:25:01;99596.54;;;0.87;97.26
76753;BME280;65687;51.308;16.916;2023-11-19T04:30:03;99580.58;;;0.87;97.17
76753;BME280;65687;51.308;16.916;2023-11-19T04:35:07;99567.54;;;0.90;96.84
76753;BME280;65687;51.308;16.916;2023-11-19T04:40:09;99557.59;;;0.90;96.51
76753;BME280;65687;51.308;16.916;2023-11-19T04:45:11;99552.96;;;0.92;96.48
76753;BME280;65687;51.308;16.916;2023-11-19T04:50:12;99549.89;;;0.95;96.52
76753;BME280;65687;51.308;16.916;2023-11-19T04:55:14;99530.31;;;0.98;96.14
76753;BME280;65687;51.308;16.916;2023-11-19T05:00:16;99532.83;;;1.02;95.88
76753;BME280;65687;51.308;16.916;2023-11-19T05:05:17;99525.04;;;1.05;95.40
76753;BME280;65687;51.308;16.916;2023-11-19T05:10:19;99528.45;;;1.08;95.21
76753;BME280;65687;51.308;16.916;2023-11-19T05:15:21;99518.73;;;1.09;95.10
76753;BME280;65687;51.308;16.916;2023-11-19T05:20:23;99508.02;;;1.10;94.83
76753;BME280;65687;51.308;16.916;2023-11-19T05:25:24;99514.66;;;1.17;94.86
76753;BME280;65687;51.308;16.916;2023-11-19T05:30:26;99500.48;;;1.19;94.66
76753;BME280;65687;51.308;16.916;2023-11-19T05:35:28;99493.30;;;1.20;94.92
76753;BME280;65687;51.308;16.916;2023-11-19T05:40:29;99498.43;;;1.18;94.47
76753;BME280;65687;51.308;16.916;2023-11-19T05:45:31;99488.46;;;1.16;94.43
76753;BME280;65687;51.308;16.916;2023-11-19T05:50:33;99477.79;;;1.16;94.28
76753;BME280;65687;51.308;16.916;2023-11-19T05:55:38;99482.02;;;1.19;94.15
76753;BME280;65687;51.308;16.916;2023-11-19T06:00:47;99463.50;;;1.20;94.24
76753;BME280;65687;51.308;16.916;2023-11-19T06:05:49;99460.07;;;1.20;94.06
76753;BME280;65687;51.308;16.916;2023-11-19T06:10:51;99448.96;;;1.19;94.18
76753;BME280;65687;51.308;16.916;2023-11-19T06:15:52;99443.45;;;1.21;94.30
76753;BME280;65687;51.308;16.916;2023-11-19T06:20:54;99436.73;;;1.21;94.19
76753;BME280;65687;51.308;16.916;2023-11-19T06:25:55;99427.17;;;1.21;94.10
76753;BME280;65687;51.308;16.916;2023-11-19T06:30:57;99411.28;;;1.20;94.18
76753;BME280;65687;51.308;16.916;2023-11-19T06:35:59;99400.64;;;1.16;94.39
76753;BME280;65687;51.308;16.916;2023-11-19T06:41:01;99389.59;;;1.15;94.31
76753;BME280;65687;51.308;16.916;2023-11-19T06:46:03;99383.54;;;1.14;94.59
76753;BME280;65687;51.308;16.916;2023-11-19T06:51:07;99370.22;;;1.14;94.60
76753;BME280;65687;51.308;16.916;2023-11-19T06:56:18;99363.33;;;1.19;95.01
76753;BME280;65687;51.308;16.916;2023-11-19T07:01:20;99351.31;;;1.28;94.86
76753;BME280;65687;51.308;16.916;2023-11-19T07:06:21;99333.37;;;1.37;94.50
76753;BME280;65687;51.308;16.916;2023-11-19T07:11:24;99326.41;;;1.44;94.46
76753;BME280;65687;51.308;16.916;2023-11-19T07:16:26;99315.14;;;1.50;94.26
76753;BME280;65687;51.308;16.916;2023-11-19T07:21:27;99310.41;;;1.55;94.14
76753;BME280;65687;51.308;16.916;2023-11-19T07:26:29;99301.88;;;1.60;93.99
76753;BME280;65687;51.308;16.916;2023-11-19T07:31:31;99299.34;;;1.67;94.07
76753;BME280;65687;51.308;16.916;2023-11-19T07:36:32;99300.33;;;1.72;93.94
76753;BME280;65687;51.308;16.916;2023-11-19T07:41:34;99295.89;;;1.78;94.22
76753;BME280;65687;51.308;16.916;2023-11-19T07:46:35;99285.51;;;1.85;94.25
76753;BME280;65687;51.308;16.916;2023-11-19T07:51:37;99280.15;;;1.90;94.19
76753;BME280;65687;51.308;16.916;2023-11-19T07:56:39;99276.96;;;1.96;94.23
76753;BME280;65687;51.308;16.916;2023-11-19T08:01:40;99272.23;;;2.01;94.57
76753;BME280;65687;51.308;16.916;2023-11-19T08:06:42;99261.67;;;2.04;94.91
76753;BME280;65687;51.308;16.916;2023-11-19T08:11:43;99255.77;;;2.04;94.69
76753;BME280;65687;51.308;16.916;2023-11-19T08:16:45;99249.84;;;2.03;95.15
76753;BME280;65687;51.308;16.916;2023-11-19T08:21:47;99236.87;;;1.98;95.06
76753;BME280;65687;51.308;16.916;2023-11-19T08:26:49;99229.51;;;1.88;95.44
76753;BME280;65687;51.308;16.916;2023-11-19T08:31:51;99208.95;;;1.80;96.03
76753;BME280;65687;51.308;16.916;2023-11-19T08:36:52;99197.27;;;1.70;96.53
76753;BME280;65687;51.308;16.916;2023-11-19T08:41:57;99186.14;;;1.61;96.79
76753;BME280;65687;51.308;16.916;2023-11-19T08:46:59;99177.24;;;1.56;97.19
76753;BME280;65687;51.308;16.916;2023-11-19T08:52:00;99166.15;;;1.55;97.66
76753;BME280;65687;51.308;16.916;2023-11-19T08:57:03;99169.41;;;1.54;98.03
76753;BME280;65687;51.308;16.916;2023-11-19T09:02:05;99167.48;;;1.55;98.17
76753;BME280;65687;51.308;16.916;2023-11-19T09:07:08;99153.63;;;1.57;98.56
76753;BME280;65687;51.308;16.916;2023-11-19T09:12:10;99138.30;;;1.58;98.92
76753;BME280;65687;51.308;16.916;2023-11-19T09:17:12;99140.52;;;1.61;99.00
76753;BME280;65687;51.308;16.916;2023-11-19T09:22:14;99142.46;;;1.66;99.03
76753;BME280;65687;51.308;16.916;2023-11-19T09:27:16;99133.58;;;1.69;98.77
76753;BME280;65687;51.308;16.916;2023-11-19T09:32:18;99120.33;;;1.71;99.11
76753;BME280;65687;51.308;16.916;2023-11-19T09:37:19;99114.42;;;1.74;99.13
76753;BME280;65687;51.308;16.916;2023-11-19T09:42:21;99098.77;;;1.76;99.15
76753;BME280;65687;51.308;16.916;2023-11-19T09:47:23;99080.42;;;1.78;99.07
76753;BME280;65687;51.308;16.916;2023-11-19T09:52:26;99068.09;;;1.78;99.48
76753;BME280;65687;51.308;16.916;2023-11-19T09:57:30;99055.25;;;1.81;99.71
76753;BME280;65687;51.308;16.916;2023-11-19T10:02:34;99045.00;;;1.86;99.87
76753;BME280;65687;51.308;16.916;2023-11-19T10:07:39;99048.39;;;1.92;99.98
76753;BME280;65687;51.308;16.916;2023-11-19T10:12:42;99037.84;;;1.96;100.00
76753;BME280;65687;51.308;16.916;2023-11-19T10:17:44;99026.36;;;1.99;100.00
76753;BME280;65687;51.308;16.916;2023-11-19T10:22:46;99010.19;;;2.03;100.00
76753;BME280;65687;51.308;16.916;2023-11-19T10:27:48;98995.93;;;2.08;100.00
76753;BME280;65687;51.308;16.916;2023-11-19T10:33:13;98987.91;;;2.14;100.00
76753;BME280;65687;51.308;16.916;2023-11-19T10:38:23;98978.71;;;2.23;100.00
76753;BME280;65687;51.308;16.916;2023-11-19T10:43:25;98972.73;;;2.33;100.00
76753;BME280;65687;51.308;16.916;2023-11-19T10:48:27;98974.13;;;2.44;100.00
76753;BME280;65687;51.308;16.916;2023-11-19T10:53:29;98956.30;;;2.52;100.00
76753;BME280;65687;51.308;16.916;2023-11-19T10:58:32;98945.37;;;2.61;100.00
76753;BME280;65687;51.308;16.916;2023-11-19T11:03:39;98952.27;;;2.73;100.00
76753;BME280;65687;51.308;16.916;2023-11-19T11:08:41;98955.33;;;2.83;100.00
76753;BME280;65687;51.308;16.916;2023-11-19T11:13:44;98946.52;;;2.92;100.00
76753;BME280;65687;51.308;16.916;2023-11-19T11:18:47;98941.44;;;2.99;100.00
76753;BME280;65687;51.308;16.916;2023-11-19T11:40:24;98920.88;;;3.18;100.00
76753;BME280;65687;51.308;16.916;2023-11-19T11:45:40;98916.59;;;3.21;100.00
76753;BME280;65687;51.308;16.916;2023-11-19T11:50:49;98909.39;;;3.25;100.00
76753;BME280;65687;51.308;16.916;2023-11-19T12:00:53;98891.73;;;3.33;100.00
76753;BME280;65687;51.308;16.916;2023-11-19T12:05:55;98889.27;;;3.40;100.00
76753;BME280;65687;51.308;16.916;2023-11-19T12:10:58;98889.24;;;3.46;100.00
76753;BME280;65687;51.308;16.916;2023-11-19T12:21:01;98875.42;;;3.60;100.00
76753;BME280;65687;51.308;16.916;2023-11-19T12:26:03;98867.16;;;3.65;100.00
76753;BME280;65687;51.308;16.916;2023-11-19T12:31:08;98863.77;;;3.72;100.00
76753;BME280;65687;51.308;16.916;2023-11-19T12:36:13;98863.30;;;3.76;100.00
76753;BME280;65687;51.308;16.916;2023-11-19T12:41:15;98863.98;;;3.78;100.00
76753;BME280;65687;51.308;16.916;2023-11-19T12:46:22;98859.15;;;3.81;100.00
76753;BME280;65687;51.308;16.916;2023-11-19T12:51:31;98848.91;;;3.85;100.00
76753;BME280;65687;51.308;16.916;2023-11-19T12:56:33;98847.55;;;3.89;100.00
76753;BME280;65687;51.308;16.916;2023-11-19T13:01:35;98841.60;;;3.94;100.00
76753;BME280;65687;51.308;16.916;2023-11-19T13:06:45;98837.39;;;4.00;100.00
76753;BME280;65687;51.308;16.916;2023-11-19T13:11:47;98838.40;;;4.07;100.00
76753;BME280;65687;51.308;16.916;2023-11-19T13:16:49;98838.70;;;4.11;100.00
76753;BME280;65687;51.308;16.916;2023-11-19T13:21:50;98835.02;;;4.16;100.00
76753;BME280;65687;51.308;16.916;2023-11-19T13:26:52;98826.13;;;4.22;100.00
76753;BME280;65687;51.308;16.916;2023-11-19T13:31:54;98810.00;;;4.28;100.00
76753;BME280;65687;51.308;16.916;2023-11-19T13:36:55;98808.29;;;4.37;100.00
76753;BME280;65687;51.308;16.916;2023-11-19T13:41:58;98805.92;;;4.45;100.00
76753;BME280;65687;51.308;16.916;2023-11-19T13:47:00;98800.84;;;4.51;100.00
76753;BME280;65687;51.308;16.916;2023-11-19T13:52:02;98802.33;;;4.58;100.00
76753;BME280;65687;51.308;16.916;2023-11-19T13:57:04;98803.27;;;4.64;100.00
76753;BME280;65687;51.308;16.916;2023-11-19T14:02:05;98799.64;;;4.72;100.00
76753;BME280;65687;51.308;16.916;2023-11-19T14:07:08;98794.13;;;4.81;100.00
76753;BME280;65687;51.308;16.916;2023-11-19T14:12:10;98795.76;;;4.90;100.00
76753;BME280;65687;51.308;16.916;2023-11-19T14:17:14;98795.87;;;4.99;100.00
76753;BME280;65687;51.308;16.916;2023-11-19T14:22:17;98797.87;;;5.11;100.00
76753;BME280;65687;51.308;16.916;2023-11-19T14:27:18;98802.41;;;5.19;100.00
76753;BME280;65687;51.308;16.916;2023-11-19T14:32:20;98803.41;;;5.21;100.00
76753;BME280;65687;51.308;16.916;2023-11-19T14:37:21;98798.45;;;5.22;100.00
76753;BME280;65687;51.308;16.916;2023-11-19T14:42:24;98807.87;;;5.22;100.00
76753;BME280;65687;51.308;16.916;2023-11-19T14:47:26;98808.43;;;5.21;100.00
76753;BME280;65687;51.308;16.916;2023-11-19T14:52:28;98812.36;;;5.17;100.00
76753;BME280;65687;51.308;16.916;2023-11-19T14:57:29;98816.75;;;5.15;100.00
76753;BME280;65687;51.308;16.916;2023-11-19T15:02:32;98807.77;;;5.14;100.00
76753;BME280;65687;51.308;16.916;2023-11-19T15:07:33;98805.61;;;5.14;100.00
76753;BME280;65687;51.308;16.916;2023-11-19T15:12:37;98801.37;;;5.16;100.00
76753;BME280;65687;51.308;16.916;2023-11-19T15:17:40;98800.60;;;5.14;100.00
76753;BME280;65687;51.308;16.916;2023-11-19T15:22:42;98805.56;;;5.11;100.00
76753;BME280;65687;51.308;16.916;2023-11-19T15:27:44;98799.74;;;5.02;100.00
76753;BME280;65687;51.308;16.916;2023-11-19T15:32:45;98818.89;;;4.98;100.00
76753;BME280;65687;51.308;16.916;2023-11-19T15:37:47;98822.73;;;4.93;99.98
76753;BME280;65687;51.308;16.916;2023-11-19T15:42:49;98818.67;;;4.79;99.96
76753;BME280;65687;51.308;16.916;2023-11-19T15:47:51;98818.52;;;4.62;99.95
76753;BME280;65687;51.308;16.916;2023-11-19T15:52:53;98818.79;;;4.57;100.00
76753;BME280;65687;51.308;16.916;2023-11-19T15:57:55;98822.42;;;4.49;100.00
76753;BME280;65687;51.308;16.916;2023-11-19T16:02:56;98828.15;;;4.47;99.98
76753;BME280;65687;51.308;16.916;2023-11-19T16:07:58;98835.86;;;4.48;100.00
76753;BME280;65687;51.308;16.916;2023-11-19T16:12:59;98832.98;;;4.52;100.00
76753;BME280;65687;51.308;16.916;2023-11-19T16:18:01;98830.75;;;4.62;100.00
76753;BME280;65687;51.308;16.916;2023-11-19T16:23:03;98833.97;;;4.77;100.00
76753;BME280;65687;51.308;16.916;2023-11-19T16:28:05;98836.08;;;4.88;100.00
76753;BME280;65687;51.308;16.916;2023-11-19T16:33:08;98835.02;;;4.99;100.00
76753;BME280;65687;51.308;16.916;2023-11-19T16:38:10;98837.76;;;5.07;100.00
76753;BME280;65687;51.308;16.916;2023-11-19T16:43:12;98837.02;;;5.18;100.00
76753;BME280;65687;51.308;16.916;2023-11-19T16:48:14;98840.00;;;5.27;100.00
76753;BME280;65687;51.308;16.916;2023-11-19T16:53:18;98841.20;;;5.37;100.00
76753;BME280;65687;51.308;16.916;2023-11-19T16:58:20;98843.63;;;5.48;100.00
76753;BME280;65687;51.308;16.916;2023-11-19T17:03:22;98843.48;;;5.58;100.00
76753;BME280;65687;51.308;16.916;2023-11-19T17:08:23;98836.85;;;5.69;100.00
76753;BME280;65687;51.308;16.916;2023-11-19T17:13:26;98832.73;;;5.80;100.00
76753;BME280;65687;51.308;16.916;2023-11-19T17:18:28;98835.48;;;5.91;100.00
76753;BME280;65687;51.308;16.916;2023-11-19T17:23:30;98841.21;;;5.98;100.00
76753;BME280;65687;51.308;16.916;2023-11-19T17:28:32;98837.39;;;6.06;100.00
76753;BME280;65687;51.308;16.916;2023-11-19T17:33:36;98842.50;;;6.13;100.00
76753;BME280;65687;51.308;16.916;2023-11-19T17:38:38;98836.30;;;6.17;100.00
76753;BME280;65687;51.308;16.916;2023-11-19T17:43:40;98841.60;;;6.24;100.00
76753;BME280;65687;51.308;16.916;2023-11-19T17:48:42;98841.40;;;6.32;100.00
76753;BME280;65687;51.308;16.916;2023-11-19T17:53:43;98841.27;;;6.37;100.00
76753;BME280;65687;51.308;16.916;2023-11-19T17:58:45;98835.67;;;6.41;100.00
76753;BME280;65687;51.308;16.916;2023-11-19T18:03:47;98841.69;;;6.49;100.00
76753;BME280;65687;51.308;16.916;2023-11-19T18:08:49;98841.66;;;6.53;100.00
76753;BME280;65687;51.308;16.916;2023-11-19T18:13:51;98840.14;;;6.59;100.00
76753;BME280;65687;51.308;16.916;2023-11-19T18:18:53;98833.20;;;6.66;100.00
76753;BME280;65687;51.308;16.916;2023-11-19T18:23:55;98834.05;;;6.71;100.00
76753;BME280;65687;51.308;16.916;2023-11-19T18:28:56;98840.18;;;6.75;100.00
76753;BME280;65687;51.308;16.916;2023-11-19T18:33:58;98843.31;;;6.79;100.00
76753;BME280;65687;51.308;16.916;2023-11-19T18:39:00;98849.31;;;6.82;100.00
76753;BME280;65687;51.308;16.916;2023-11-19T18:44:02;98851.94;;;6.86;100.00
76753;BME280;65687;51.308;16.916;2023-11-19T18:49:04;98856.35;;;6.92;100.00
76753;BME280;65687;51.308;16.916;2023-11-19T18:54:07;98856.02;;;6.94;100.00
76753;BME280;65687;51.308;16.916;2023-11-19T18:59:10;98858.43;;;6.98;100.00
76753;BME280;65687;51.308;16.916;2023-11-19T19:04:13;98862.77;;;7.03;100.00
76753;BME280;65687;51.308;16.916;2023-11-19T19:09:15;98851.67;;;7.06;100.00
76753;BME280;65687;51.308;16.916;2023-11-19T19:14:20;98851.57;;;7.07;100.00
76753;BME280;65687;51.308;16.916;2023-11-19T19:19:22;98854.85;;;7.05;100.00
76753;BME280;65687;51.308;16.916;2023-11-19T19:24:24;98858.16;;;7.05;100.00
76753;BME280;65687;51.308;16.916;2023-11-19T19:29:26;98853.63;;;7.05;100.00
76753;BME280;65687;51.308;16.916;2023-11-19T19:34:27;98849.13;;;7.02;100.00
76753;BME280;65687;51.308;16.916;2023-11-19T19:39:31;98844.84;;;7.01;100.00
76753;BME280;65687;51.308;16.916;2023-11-19T19:44:35;98848.88;;;6.99;100.00
76753;BME280;65687;51.308;16.916;2023-11-19T19:49:37;98856.02;;;6.97;100.00
76753;BME280;65687;51.308;16.916;2023-11-19T19:54:39;98860.93;;;6.95;100.00
76753;BME280;65687;51.308;16.916;2023-11-19T19:59:40;98864.79;;;6.95;100.00
76753;BME280;65687;51.308;16.916;2023-11-19T20:04:44;98862.67;;;6.96;100.00
76753;BME280;65687;51.308;16.916;2023-11-19T20:09:45;98862.36;;;6.97;100.00
76753;BME280;65687;51.308;16.916;2023-11-19T20:14:47;98867.91;;;6.97;100.00
76753;BME280;65687;51.308;16.916;2023-11-19T20:19:49;98873.70;;;6.98;100.00
76753;BME280;65687;51.308;16.916;2023-11-19T20:24:51;98875.27;;;6.99;100.00
76753;BME280;65687;51.308;16.916;2023-11-19T20:29:52;98876.20;;;7.01;100.00
76753;BME280;65687;51.308;16.916;2023-11-19T20:34:54;98882.36;;;7.02;100.00
76753;BME280;65687;51.308;16.916;2023-11-19T20:39:57;98877.14;;;7.05;100.00
76753;BME280;65687;51.308;16.916;2023-11-19T20:44:58;98876.98;;;7.07;100.00
76753;BME280;65687;51.308;16.916;2023-11-19T20:50:00;98877.44;;;7.11;100.00
76753;BME280;65687;51.308;16.916;2023-11-19T20:55:02;98879.41;;;7.14;100.00
76753;BME280;65687;51.308;16.916;2023-11-19T21:00:05;98879.13;;;7.17;100.00
76753;BME280;65687;51.308;16.916;2023-11-19T21:05:08;98878.18;;;7.21;100.00
76753;BME280;65687;51.308;16.916;2023-11-19T21:10:10;98879.73;;;7.24;100.00
76753;BME280;65687;51.308;16.916;2023-11-19T21:15:14;98880.08;;;7.27;100.00
76753;BME280;65687;51.308;16.916;2023-11-19T21:20:15;98884.02;;;7.28;100.00
76753;BME280;65687;51.308;16.916;2023-11-19T21:25:17;98880.83;;;7.31;100.00
76753;BME280;65687;51.308;16.916;2023-11-19T21:30:18;98874.31;;;7.34;100.00
76753;BME280;65687;51.308;16.916;2023-11-19T21:35:20;98868.31;;;7.35;100.00
76753;BME280;65687;51.308;16.916;2023-11-19T21:40:22;98868.29;;;7.34;100.00
76753;BME280;65687;51.308;16.916;2023-11-19T21:45:23;98865.72;;;7.33;100.00
76753;BME280;65687;51.308;16.916;2023-11-19T21:50:26;98863.95;;;7.32;100.00
76753;BME280;65687;51.308;16.916;2023-11-19T21:55:27;98866.89;;;7.31;100.00
76753;BME280;65687;51.308;16.916;2023-11-19T22:00:32;98868.68;;;7.30;100.00
76753;BME280;65687;51.308;16.916;2023-11-19T22:05:33;98870.98;;;7.32;100.00
76753;BME280;65687;51.308;16.916;2023-11-19T22:10:36;98875.35;;;7.35;100.00
76753;BME280;65687;51.308;16.916;2023-11-19T22:15:38;98876.73;;;7.36;100.00
76753;BME280;65687;51.308;16.916;2023-11-19T22:20:40;98874.05;;;7.38;100.00
76753;BME280;65687;51.308;16.916;2023-11-19T22:25:41;98872.24;;;7.39;100.00
76753;BME280;65687;51.308;16.916;2023-11-19T22:30:44;98870.31;;;7.38;100.00
76753;BME280;65687;51.308;16.916;2023-11-19T22:35:45;98863.35;;;7.33;100.00
76753;BME280;65687;51.308;16.916;2023-11-19T22:40:47;98860.45;;;7.27;100.00
76753;BME280;65687;51.308;16.916;2023-11-19T22:45:49;98863.79;;;7.22;100.00
76753;BME280;65687;51.308;16.916;2023-11-19T22:50:51;98867.55;;;7.15;100.00
76753;BME280;65687;51.308;16.916;2023-11-19T22:55:53;98868.55;;;7.09;100.00
76753;BME280;65687;51.308;16.916;2023-11-19T23:00:54;98868.87;;;7.04;100.00
76753;BME280;65687;51.308;16.916;2023-11-19T23:05:56;98866.36;;;7.02;100.00
76753;BME280;65687;51.308;16.916;2023-11-19T23:10:57;98871.15;;;7.00;100.00
76753;BME280;65687;51.308;16.916;2023-11-19T23:16:00;98873.04;;;6.98;100.00
76753;BME280;65687;51.308;16.916;2023-11-19T23:21:02;98872.75;;;6.99;100.00
76753;BME280;65687;51.308;16.916;2023-11-19T23:26:04;98878.63;;;7.02;100.00
76753;BME280;65687;51.308;16.916;2023-11-19T23:31:06;98873.39;;;7.04;100.00
76753;BME280;65687;51.308;16.916;2023-11-19T23:36:08;98870.96;;;7.05;100.00
76753;BME280;65687;51.308;16.916;2023-11-19T23:41:10;98869.84;;;7.06;100.00
76753;BME280;65687;51.308;16.916;2023-11-19T23:46:12;98867.27;;;7.08;100.00
76753;BME280;65687;51.308;16.916;2023-11-19T23:51:14;98873.84;;;7.11;99.97
76753;BME280;65687;51.308;16.916;2023-11-19T23:56:16;98874.73;;;7.14;99.96
